Crystal Cutler — WDF6034 — position and weather

sailwx.info

Track history (hours):
 
Tides and Currents Weather Stations Pressure Air Temp Water Temp Dewpoint Dewpoint Depression Visibility Wind Speed Wind Dir Waves Ship Positions

Crystal Cutler

Owner: Poling & Cutler Marine Transportation, LLC, East Brunswick, NJ. More information available from US FCC via Universal Licensing System and Coast Guard Vessel Documentation Center.

Last reported at 2018-Jun-18 18:20 UTC. Time now 2018-Jun-18 21:13 UTC.
Position N 40°33' W 074°02'.

Length 23 m.

Type: Towing. MMSI: 367469910.

Date/timePositionNaut miles runAvg speedWind from/ knotsBaromVisibWave heightAir tempDewpointWater temp
2018-Jun-18 18:20N 40°33' W 074°02'3 6.7
2018-Jun-18 17:58N 40°36' W 074°03'3 6.3
2018-Jun-18 17:30N 40°39' W 074°02'3 6.2
2018-Jun-18 17:00N 40°41' W 074°01'2 4.0
2018-Jun-18 16:30N 40°43' W 073°59'2 4.1
2018-Jun-18 15:59N 40°44' W 073°57'1 0.2
2018-Jun-18 10:47N 40°44' W 073°56'0 0.8
2018-Jun-18 10:30N 40°44' W 073°56'2 3.6
2018-Jun-18 10:01N 40°44' W 073°58'2 3.8
2018-Jun-18 09:31N 40°42' W 073°60'3 5.1
2018-Jun-18 09:01N 40°40' W 074°02'3 6.9
2018-Jun-18 08:30N 40°39' W 074°06'4 7.7
2018-Jun-18 08:00N 40°39' W 074°11'3 6.1
2018-Jun-18 07:29N 40°36' W 074°12'15 0.4
2018-Jun-16 14:05N 40°35' W 073°52'1 7.3
2018-Jun-16 13:55N 40°34' W 073°54'3 7.8
2018-Jun-16 13:30N 40°34' W 073°58'12 6.3
2018-Jun-16 11:34N 40°30' W 074°13'9 0.5
2018-Jun-15 16:37N 40°39' W 074°11'1 5.5
2018-Jun-15 16:29N 40°39' W 074°10'2 4.7
2018-Jun-15 16:00N 40°39' W 074°07'2 4.8
2018-Jun-15 15:30N 40°39' W 074°04'3 5.3
2018-Jun-15 15:00N 40°41' W 074°02'3 6.0
2018-Jun-15 14:30N 40°43' W 073°58'2 0.3
2018-Jun-15 08:40N 40°44' W 073°56'0 0.0
2018-Jun-15 08:28N 40°44' W 073°56'0 0.0
2018-Jun-15 07:58N 40°44' W 073°56'0 0.0
2018-Jun-15 07:28N 40°44' W 073°56'1 1.4
2018-Jun-15 07:01N 40°44' W 073°56'2 3.3
2018-Jun-15 06:30N 40°44' W 073°58'2 4.0
2018-Jun-15 06:00N 40°42' W 073°59'2 4.9
2018-Jun-15 05:30N 40°41' W 074°02'4 7.6
2018-Jun-15 05:01N 40°39' W 074°06'4 0.3
2018-Jun-14 16:37N 40°39' W 074°11'1 7.7
2018-Jun-14 16:30N 40°39' W 074°10'3 6.4
2018-Jun-14 16:00N 40°39' W 074°06'3 6.7
2018-Jun-14 15:30N 40°41' W 074°02'4 7.6
2018-Jun-14 15:00N 40°43' W 073°58'  
2018-Jun-12 09:23N 40°43' W 073°58'4 9.4
2018-Jun-12 09:00N 40°41' W 074°01'8 6.4
2018-Jun-12 07:45N 40°38' W 074°11'12 0.5
2018-Jun-11 06:47N 40°34' W 073°56'12 2.2
2018-Jun-11 01:12N 40°39' W 074°11'2 8.5
2018-Jun-11 00:59N 40°39' W 074°09'2 1.5
2018-Jun-10 23:55N 40°39' W 074°07'0 0.0
2018-Jun-10 23:13N 40°39' W 074°07'0 0.0
2018-Jun-10 22:55N 40°39' W 074°07'3 6.4
2018-Jun-10 22:23N 40°39' W 074°11'0 0.1
2018-Jun-10 19:23N 40°39' W 074°11'3 8.4
2018-Jun-10 19:01N 40°39' W 074°07'3 6.8
2018-Jun-10 18:30N 40°37' W 074°03'5 6.9
2018-Jun-10 17:48N 40°34' W 073°58'2 6.3
2018-Jun-10 17:26N 40°34' W 073°55'1 0.0
2018-Jun-09 14:05N 40°34' W 073°54'1 6.8
2018-Jun-09 13:58N 40°34' W 073°55'4 7.5
2018-Jun-09 13:22N 40°34' W 074°01'4 9.7
2018-Jun-09 13:00N 40°37' W 074°03'3 5.7
2018-Jun-09 12:27N 40°39' W 074°07'4 0.4
2018-Jun-09 04:17N 40°38' W 074°12'2 7.3
2018-Jun-09 03:59N 40°39' W 074°09'4 7.7
2018-Jun-09 03:30N 40°39' W 074°04'3 6.4
2018-Jun-09 02:59N 40°36' W 074°02'4 5.9
2018-Jun-09 02:17N 40°34' W 073°58'3 8.2
2018-Jun-09 01:58N 40°34' W 073°54'  
Track history (hours):
 
Tides and Currents Weather Stations Pressure Air Temp Water Temp Dewpoint Dewpoint Depression Visibility Wind Speed Wind Dir Waves Ship Positions

Crystal Cutler

Owner: Poling & Cutler Marine Transportation, LLC, East Brunswick, NJ. More information available from US FCC via Universal Licensing System and Coast Guard Vessel Documentation Center.

Last reported at 2018-Jun-18 18:20 UTC. Time now 2018-Jun-18 21:13 UTC.
Position N 40°33' W 074°02'.

Length 23 m.

Type: Towing. MMSI: 367469910.

Date/timePositionNaut miles runAvg speedWind from/ knotsBaromVisibWave heightAir tempDewpointWater temp
2018-Jun-18 18:20N 40°33' W 074°02'3 6.7
2018-Jun-18 17:58N 40°36' W 074°03'3 6.3
2018-Jun-18 17:30N 40°39' W 074°02'3 6.2
2018-Jun-18 17:00N 40°41' W 074°01'2 4.0
2018-Jun-18 16:30N 40°43' W 073°59'2 4.1
2018-Jun-18 15:59N 40°44' W 073°57'1 0.2
2018-Jun-18 10:47N 40°44' W 073°56'0 0.8
2018-Jun-18 10:30N 40°44' W 073°56'2 3.6
2018-Jun-18 10:01N 40°44' W 073°58'2 3.8
2018-Jun-18 09:31N 40°42' W 073°60'3 5.1
2018-Jun-18 09:01N 40°40' W 074°02'3 6.9
2018-Jun-18 08:30N 40°39' W 074°06'4 7.7
2018-Jun-18 08:00N 40°39' W 074°11'3 6.1
2018-Jun-18 07:29N 40°36' W 074°12'15 0.4
2018-Jun-16 14:05N 40°35' W 073°52'1 7.3
2018-Jun-16 13:55N 40°34' W 073°54'3 7.8
2018-Jun-16 13:30N 40°34' W 073°58'12 6.3
2018-Jun-16 11:34N 40°30' W 074°13'9 0.5
2018-Jun-15 16:37N 40°39' W 074°11'1 5.5
2018-Jun-15 16:29N 40°39' W 074°10'2 4.7
2018-Jun-15 16:00N 40°39' W 074°07'2 4.8
2018-Jun-15 15:30N 40°39' W 074°04'3 5.3
2018-Jun-15 15:00N 40°41' W 074°02'3 6.0
2018-Jun-15 14:30N 40°43' W 073°58'2 0.3
2018-Jun-15 08:40N 40°44' W 073°56'0 0.0
2018-Jun-15 08:28N 40°44' W 073°56'0 0.0
2018-Jun-15 07:58N 40°44' W 073°56'0 0.0
2018-Jun-15 07:28N 40°44' W 073°56'1 1.4
2018-Jun-15 07:01N 40°44' W 073°56'2 3.3
2018-Jun-15 06:30N 40°44' W 073°58'2 4.0
2018-Jun-15 06:00N 40°42' W 073°59'2 4.9
2018-Jun-15 05:30N 40°41' W 074°02'4 7.6
2018-Jun-15 05:01N 40°39' W 074°06'4 0.3
2018-Jun-14 16:37N 40°39' W 074°11'1 7.7
2018-Jun-14 16:30N 40°39' W 074°10'3 6.4
2018-Jun-14 16:00N 40°39' W 074°06'3 6.7
2018-Jun-14 15:30N 40°41' W 074°02'4 7.6
2018-Jun-14 15:00N 40°43' W 073°58'  
2018-Jun-12 09:23N 40°43' W 073°58'4 9.4
2018-Jun-12 09:00N 40°41' W 074°01'8 6.4
2018-Jun-12 07:45N 40°38' W 074°11'12 0.5
2018-Jun-11 06:47N 40°34' W 073°56'12 2.2
2018-Jun-11 01:12N 40°39' W 074°11'2 8.5
2018-Jun-11 00:59N 40°39' W 074°09'2 1.5
2018-Jun-10 23:55N 40°39' W 074°07'0 0.0
2018-Jun-10 23:13N 40°39' W 074°07'0 0.0
2018-Jun-10 22:55N 40°39' W 074°07'3 6.4
2018-Jun-10 22:23N 40°39' W 074°11'0 0.1
2018-Jun-10 19:23N 40°39' W 074°11'3 8.4
2018-Jun-10 19:01N 40°39' W 074°07'3 6.8
2018-Jun-10 18:30N 40°37' W 074°03'5 6.9
2018-Jun-10 17:48N 40°34' W 073°58'2 6.3
2018-Jun-10 17:26N 40°34' W 073°55'1 0.0
2018-Jun-09 14:05N 40°34' W 073°54'1 6.8
2018-Jun-09 13:58N 40°34' W 073°55'4 7.5
2018-Jun-09 13:22N 40°34' W 074°01'4 9.7
2018-Jun-09 13:00N 40°37' W 074°03'3 5.7
2018-Jun-09 12:27N 40°39' W 074°07'4 0.4
2018-Jun-09 04:17N 40°38' W 074°12'2 7.3
2018-Jun-09 03:59N 40°39' W 074°09'4 7.7
2018-Jun-09 03:30N 40°39' W 074°04'3 6.4
2018-Jun-09 02:59N 40°36' W 074°02'4 5.9
2018-Jun-09 02:17N 40°34' W 073°58'3 8.2
2018-Jun-09 01:58N 40°34' W 073°54'  

Dump ship's entire track history